createdAt,value
2024-04-24T00:02:21.049Z,2.94
2024-04-24T00:04:49.228Z,2.75
2024-04-24T00:07:18.002Z,2.76
2024-04-24T00:09:46.179Z,2.57
2024-04-24T00:12:14.098Z,2.38
2024-04-24T00:14:42.283Z,2.56
2024-04-24T00:17:11.290Z,2.56
2024-04-24T00:19:39.563Z,2.53
2024-04-24T00:22:07.652Z,2.58
2024-04-24T00:24:35.605Z,2.49
2024-04-24T00:27:03.832Z,2.48
2024-04-24T00:29:31.673Z,2.72
2024-04-24T00:32:06.243Z,2.81
2024-04-24T00:34:34.698Z,2.86
2024-04-24T00:37:02.565Z,2.89
2024-04-24T00:39:30.654Z,2.96
2024-04-24T00:41:58.617Z,2.73
2024-04-24T00:44:26.612Z,2.62
2024-04-24T00:46:54.830Z,2.48
2024-04-24T00:49:23.164Z,2.88
2024-04-24T00:51:51.004Z,2.68
2024-04-24T00:54:19.016Z,2.51
2024-04-24T00:56:47.139Z,2.42
2024-04-24T00:59:15.619Z,2.35
2024-04-24T01:01:43.676Z,2.61
2024-04-24T01:04:11.642Z,2.48
2024-04-24T01:06:39.649Z,2.49
2024-04-24T01:09:07.628Z,2.54
2024-04-24T01:11:36.036Z,2.97
2024-04-24T01:14:04.383Z,2.78
2024-04-24T01:16:38.571Z,3.14
2024-04-24T01:19:27.667Z,2.56
2024-04-24T01:22:03.679Z,2.87
2024-04-24T01:24:34.342Z,2.76
2024-04-24T01:27:02.228Z,3.02
2024-04-24T01:29:30.486Z,2.73
2024-04-24T01:31:58.706Z,3.11
2024-04-24T01:34:27.037Z,2.77
2024-04-24T01:36:55.155Z,2.99
2024-04-24T01:39:23.100Z,3.64
2024-04-24T01:41:51.151Z,3.28
2024-04-24T01:44:19.317Z,3.34
2024-04-24T01:46:47.208Z,3.42
2024-04-24T01:49:15.522Z,3.76
2024-04-24T01:51:43.414Z,4.10
2024-04-24T01:54:11.738Z,3.91
2024-04-24T01:56:39.720Z,3.54
2024-04-24T01:59:07.845Z,3.45
2024-04-24T02:01:35.796Z,3.16
2024-04-24T02:04:04.140Z,3.18
2024-04-24T02:06:32.259Z,3.21
2024-04-24T02:09:00.080Z,3.19
2024-04-24T02:11:28.275Z,3.38
2024-04-24T02:13:56.549Z,3.15
2024-04-24T02:16:24.592Z,3.13
2024-04-24T02:18:52.764Z,3.08
2024-04-24T02:21:20.786Z,2.95
2024-04-24T02:23:48.681Z,3.18
2024-04-24T02:26:16.937Z,2.88
2024-04-24T02:28:44.822Z,3.07
2024-04-24T02:31:12.817Z,3.16
2024-04-24T02:33:40.980Z,3.59
2024-04-24T02:36:09.061Z,3.50
2024-04-24T02:38:37.008Z,4.38
2024-04-24T02:41:05.058Z,3.97
2024-04-24T02:43:33.729Z,4.11
2024-04-24T02:46:01.679Z,4.35
2024-04-24T02:48:29.593Z,3.90
2024-04-24T02:50:57.451Z,3.80
2024-04-24T02:53:25.420Z,3.70
2024-04-24T02:55:53.302Z,3.88
2024-04-24T02:58:21.234Z,3.71
2024-04-24T03:00:49.357Z,3.64
2024-04-24T03:03:17.623Z,4.06
2024-04-24T03:05:45.744Z,4.45
2024-04-24T03:08:13.853Z,4.35
2024-04-24T03:10:41.890Z,4.25
2024-04-24T03:13:09.826Z,4.12
2024-04-24T03:15:37.747Z,4.13
2024-04-24T03:18:06.859Z,3.79
2024-04-24T03:20:34.857Z,4.05
2024-04-24T03:23:05.205Z,3.88
2024-04-24T03:25:33.303Z,3.97
2024-04-24T03:28:01.291Z,3.82
2024-04-24T03:30:29.396Z,4.06
2024-04-24T03:32:57.284Z,4.09
2024-04-24T03:35:25.399Z,4.49
2024-04-24T03:37:53.528Z,3.99
2024-04-24T03:40:21.422Z,4.53
2024-04-24T03:42:49.440Z,3.76
2024-04-24T03:45:17.404Z,3.93
2024-04-24T03:47:45.504Z,3.59
2024-04-24T03:50:13.737Z,3.62
2024-04-24T03:52:41.680Z,3.51
2024-04-24T03:55:09.553Z,4.06
2024-04-24T03:57:37.566Z,3.73
2024-04-24T04:00:06.299Z,3.49
2024-04-24T04:02:39.992Z,3.47
2024-04-24T04:05:07.951Z,3.19
2024-04-24T04:07:35.988Z,3.11
2024-04-24T04:10:04.256Z,3.04
2024-04-24T04:12:32.268Z,2.93
2024-04-24T04:15:00.259Z,2.87
2024-04-24T04:17:28.567Z,2.91
2024-04-24T04:19:56.662Z,2.99
2024-04-24T04:22:24.855Z,3.39
2024-04-24T04:24:52.773Z,3.17
2024-04-24T04:27:20.769Z,3.10
2024-04-24T04:29:48.568Z,2.75
2024-04-24T04:32:16.587Z,2.82
2024-04-24T04:34:45.790Z,3.23
2024-04-24T04:37:13.732Z,3.74
2024-04-24T04:39:41.791Z,3.79
2024-04-24T04:42:09.867Z,3.97
2024-04-24T04:44:37.710Z,3.70
2024-04-24T04:47:06.039Z,3.53
2024-04-24T04:49:33.980Z,3.56
2024-04-24T04:52:01.842Z,3.31
2024-04-24T04:54:29.801Z,3.15
2024-04-24T04:56:59.222Z,3.16
2024-04-24T04:59:27.183Z,3.04
2024-04-24T05:01:58.093Z,3.06
2024-04-24T05:04:27.790Z,3.05
2024-04-24T05:06:55.729Z,2.96
2024-04-24T05:09:23.680Z,3.00
2024-04-24T05:11:51.759Z,3.02
2024-04-24T05:14:19.916Z,3.11
2024-04-24T05:16:48.050Z,3.20
2024-04-24T05:19:16.118Z,3.27
2024-04-24T05:21:44.119Z,3.10
2024-04-24T05:24:12.321Z,3.17
2024-04-24T05:26:58.818Z,2.96
2024-04-24T05:29:26.821Z,3.23
2024-04-24T05:31:54.821Z,3.36
2024-04-24T05:34:23.467Z,3.35
2024-04-24T05:36:51.542Z,3.79
2024-04-24T05:39:19.491Z,3.76
2024-04-24T05:41:47.483Z,3.78
2024-04-24T05:44:15.839Z,4.57
2024-04-24T05:46:43.825Z,4.22
2024-04-24T05:49:11.764Z,3.49
2024-04-24T05:51:39.760Z,3.41
2024-04-24T05:54:07.911Z,3.29
2024-04-24T05:56:36.058Z,3.20
2024-04-24T05:59:04.144Z,4.09
2024-04-24T06:01:32.182Z,4.07
2024-04-24T06:04:00.290Z,4.03
2024-04-24T06:06:28.313Z,4.04
2024-04-24T06:08:56.348Z,3.84
2024-04-24T06:11:24.306Z,3.35
2024-04-24T06:13:52.302Z,3.41
2024-04-24T06:16:20.377Z,3.26
2024-04-24T06:18:48.539Z,3.57
2024-04-24T06:21:16.564Z,3.71
2024-04-24T06:23:44.462Z,3.77
2024-04-24T06:26:12.465Z,3.68
2024-04-24T06:28:40.673Z,3.45
2024-04-24T06:31:08.677Z,3.47
2024-04-24T06:33:36.927Z,4.05
2024-04-24T06:36:06.016Z,4.12
2024-04-24T06:38:34.041Z,4.21
2024-04-24T06:41:02.003Z,4.09
2024-04-24T06:43:29.952Z,3.81
2024-04-24T06:45:57.849Z,4.33
2024-04-24T06:48:25.953Z,4.34
2024-04-24T06:50:58.190Z,3.75
2024-04-24T06:53:26.753Z,3.48
2024-04-24T06:55:59.982Z,3.41
2024-04-24T06:58:30.249Z,3.57
2024-04-24T07:00:58.245Z,3.51
2024-04-24T07:03:27.584Z,3.29
2024-04-24T07:05:55.662Z,3.32
2024-04-24T07:08:26.429Z,3.49
2024-04-24T07:10:54.756Z,3.41
2024-04-24T07:13:22.877Z,3.09
2024-04-24T07:15:50.914Z,2.84
2024-04-24T07:18:18.963Z,2.70
2024-04-24T07:20:47.237Z,2.09
2024-04-24T07:23:16.687Z,2.13
2024-04-24T07:25:44.951Z,2.05
2024-04-24T07:28:13.029Z,2.06
2024-04-24T07:30:40.947Z,1.95
2024-04-24T07:33:09.132Z,1.46
2024-04-24T07:35:37.292Z,1.31
2024-04-24T07:38:05.266Z,1.54
2024-04-24T07:40:33.137Z,1.62
2024-04-24T07:43:01.082Z,1.25
2024-04-24T07:45:29.216Z,1.22
2024-04-24T07:47:57.377Z,1.09
2024-04-24T07:50:25.511Z,1.19
2024-04-24T07:52:53.646Z,1.27
2024-04-24T07:55:21.722Z,1.64
2024-04-24T07:57:49.746Z,1.50
2024-04-24T08:00:18.033Z,1.53
2024-04-24T08:02:46.203Z,1.59
2024-04-24T08:05:14.414Z,1.38
2024-04-24T08:07:42.349Z,1.77
2024-04-24T08:10:10.956Z,1.25
2024-04-24T08:12:38.952Z,1.50
2024-04-24T08:15:07.330Z,1.18
2024-04-24T08:17:35.272Z,1.30
2024-04-24T08:20:04.211Z,1.82
2024-04-24T08:22:32.279Z,1.53
2024-04-24T08:25:00.279Z,1.64
2024-04-24T08:27:28.388Z,1.81
2024-04-24T08:29:56.321Z,1.75
2024-04-24T08:32:24.479Z,1.85
2024-04-24T08:34:52.442Z,1.84
2024-04-24T08:37:20.371Z,1.71
2024-04-24T08:39:48.378Z,2.14
2024-04-24T08:42:16.333Z,2.37
2024-04-24T08:44:44.306Z,2.86
2024-04-24T08:47:12.403Z,2.66
2024-04-24T08:49:40.301Z,3.11
2024-04-24T08:52:08.258Z,3.08
2024-04-24T08:54:36.179Z,3.04
2024-04-24T08:57:05.049Z,3.20
2024-04-24T08:59:33.552Z,3.60
2024-04-24T09:02:04.897Z,3.53
2024-04-24T09:04:33.281Z,3.47
2024-04-24T09:07:01.834Z,3.00
2024-04-24T09:09:30.190Z,2.77
2024-04-24T09:12:04.436Z,2.58
2024-04-24T09:14:33.441Z,3.08
2024-04-24T09:17:01.980Z,3.20
2024-04-24T09:19:30.444Z,3.05
2024-04-24T09:21:58.533Z,2.77
2024-04-24T09:24:26.457Z,3.45
2024-04-24T09:26:56.588Z,3.27
2024-04-24T09:29:24.642Z,3.27
2024-04-24T09:31:52.721Z,3.33
2024-04-24T09:34:20.811Z,3.26
2024-04-24T09:36:49.155Z,3.34
2024-04-24T09:39:17.556Z,3.58
2024-04-24T09:41:48.155Z,3.70
2024-04-24T09:44:16.645Z,3.75
2024-04-24T09:46:49.141Z,3.78
2024-04-24T09:49:17.220Z,3.78
2024-04-24T09:51:45.331Z,4.09
2024-04-24T09:54:13.194Z,4.13
2024-04-24T09:56:46.856Z,4.70
2024-04-24T09:59:15.644Z,4.87
2024-04-24T10:01:48.150Z,4.93
2024-04-24T10:04:16.724Z,4.68
2024-04-24T10:06:45.733Z,5.01
2024-04-24T10:09:17.942Z,4.96
2024-04-24T10:11:50.355Z,5.16
2024-04-24T10:14:20.165Z,5.41
2024-04-24T10:16:48.133Z,5.58
2024-04-24T10:19:16.135Z,5.85
2024-04-24T10:21:45.497Z,5.80
2024-04-24T10:24:13.833Z,5.73
2024-04-24T10:26:41.845Z,5.74
2024-04-24T10:29:10.150Z,6.02
2024-04-24T10:31:38.122Z,5.54
2024-04-24T10:34:06.939Z,5.38
2024-04-24T10:36:34.927Z,5.72
2024-04-24T10:39:05.311Z,5.50
2024-04-24T10:41:33.501Z,5.52
2024-04-24T10:44:01.669Z,5.50
2024-04-24T10:46:29.685Z,5.57
2024-04-24T10:49:01.566Z,5.48
2024-04-24T10:51:33.651Z,5.42
2024-04-24T10:54:07.687Z,5.70
2024-04-24T10:56:40.564Z,5.39
2024-04-24T10:59:08.691Z,5.46
2024-04-24T11:01:46.352Z,5.50
2024-04-24T11:04:18.907Z,5.57
2024-04-24T11:06:46.872Z,5.35
2024-04-24T11:09:14.867Z,5.48
2024-04-24T11:11:43.173Z,5.04
2024-04-24T11:14:14.610Z,4.70
2024-04-24T11:16:54.771Z,5.14
2024-04-24T11:19:23.816Z,5.44
2024-04-24T11:21:51.903Z,5.35
2024-04-24T11:24:32.443Z,5.67
2024-04-24T11:27:01.338Z,5.46
2024-04-24T11:29:39.696Z,5.38
2024-04-24T11:32:08.170Z,5.37
2024-04-24T11:34:38.332Z,5.18
2024-04-24T11:37:06.450Z,4.76
2024-04-24T11:39:34.529Z,4.98
2024-04-24T11:42:02.654Z,5.09
2024-04-24T11:44:30.736Z,4.80
2024-04-24T11:46:58.978Z,4.51
2024-04-24T11:49:27.357Z,4.59
2024-04-24T11:51:55.563Z,4.42
2024-04-24T11:54:23.601Z,4.89
2024-04-24T11:56:51.795Z,3.97
2024-04-24T11:59:22.721Z,3.87
2024-04-24T12:01:50.632Z,4.15
2024-04-24T12:04:18.636Z,4.01
2024-04-24T12:06:46.624Z,3.67
2024-04-24T12:09:16.010Z,3.65
2024-04-24T12:11:45.494Z,3.59
2024-04-24T12:14:15.698Z,4.07
2024-04-24T12:16:43.791Z,3.87
2024-04-24T12:19:12.587Z,4.16
2024-04-24T12:21:40.976Z,4.08
2024-04-24T12:24:09.105Z,3.82
2024-04-24T12:26:37.178Z,3.47
2024-04-24T12:29:05.198Z,3.40
2024-04-24T12:31:33.431Z,3.83
2024-04-24T12:34:01.765Z,3.99
2024-04-24T12:36:30.014Z,4.20
2024-04-24T12:38:58.034Z,4.17
2024-04-24T12:41:26.096Z,3.99
2024-04-24T12:43:55.614Z,3.72
2024-04-24T12:46:23.922Z,3.92
2024-04-24T12:48:56.368Z,4.21
2024-04-24T12:51:24.927Z,4.28
2024-04-24T12:53:52.902Z,4.66
2024-04-24T12:56:21.032Z,4.90
2024-04-24T12:58:50.329Z,4.50
2024-04-24T13:01:21.561Z,4.87
2024-04-24T13:03:49.884Z,4.92
2024-04-24T13:06:20.391Z,4.62
2024-04-24T13:08:50.398Z,3.88
2024-04-24T13:11:18.560Z,3.81
2024-04-24T13:13:46.667Z,4.46
2024-04-24T13:16:14.618Z,4.23
2024-04-24T13:18:43.833Z,4.63
2024-04-24T13:21:11.898Z,4.73
2024-04-24T13:23:40.018Z,4.89
2024-04-24T13:26:08.076Z,4.18
2024-04-24T13:28:36.101Z,3.98
2024-04-24T13:31:06.402Z,4.01
2024-04-24T13:33:35.828Z,4.10
2024-04-24T13:36:04.379Z,4.33
2024-04-24T13:38:32.376Z,4.34
2024-04-24T13:41:06.384Z,4.33
2024-04-24T13:43:34.390Z,4.42
2024-04-24T13:46:02.449Z,4.26
2024-04-24T13:48:32.899Z,4.21
2024-04-24T13:51:01.669Z,4.31
2024-04-24T13:53:29.794Z,4.52
2024-04-24T13:55:57.788Z,5.14
2024-04-24T13:58:25.823Z,4.98
2024-04-24T14:00:54.271Z,4.86
2024-04-24T14:03:22.627Z,5.64
2024-04-24T14:05:54.261Z,4.85
2024-04-24T14:08:23.229Z,4.41
2024-04-24T14:10:51.410Z,3.33
2024-04-24T14:13:19.431Z,2.92
2024-04-24T14:15:47.366Z,2.65
2024-04-24T14:18:15.476Z,2.56
2024-04-24T14:20:43.474Z,2.51
2024-04-24T14:23:11.572Z,2.58
2024-04-24T14:25:39.585Z,2.83
2024-04-24T14:28:07.691Z,2.85
2024-04-24T14:30:35.711Z,3.16
2024-04-24T14:33:03.908Z,2.87
2024-04-24T14:35:33.417Z,3.22
2024-04-24T14:38:01.415Z,2.89
2024-04-24T14:40:29.330Z,3.38
2024-04-24T14:42:57.340Z,3.66
2024-04-24T14:45:25.382Z,3.58
2024-04-24T14:47:53.575Z,3.21
2024-04-24T14:50:21.846Z,3.32
2024-04-24T14:52:49.851Z,3.64
2024-04-24T14:55:18.127Z,3.43
2024-04-24T14:57:46.078Z,3.32
2024-04-24T15:00:19.891Z,3.33
2024-04-24T15:02:47.954Z,3.29
2024-04-24T15:05:16.656Z,2.92
2024-04-24T15:07:44.677Z,3.18
2024-04-24T15:10:12.707Z,3.37
2024-04-24T15:12:40.632Z,3.21
2024-04-24T15:15:08.652Z,3.28
2024-04-24T15:17:36.991Z,3.44
2024-04-24T15:20:05.547Z,3.34
2024-04-24T15:22:33.927Z,3.50
2024-04-24T15:25:01.901Z,3.73
2024-04-24T15:27:29.997Z,3.22
2024-04-24T15:29:57.937Z,3.34
2024-04-24T15:32:26.076Z,3.49
2024-04-24T15:34:54.899Z,3.50
2024-04-24T15:37:22.893Z,3.29
2024-04-24T15:39:50.986Z,3.28
2024-04-24T15:42:19.976Z,3.51
2024-04-24T15:44:47.972Z,3.21
2024-04-24T15:47:16.069Z,3.07
2024-04-24T15:49:44.140Z,3.45
2024-04-24T15:52:12.262Z,3.27
2024-04-24T15:54:40.196Z,3.56
2024-04-24T15:57:11.298Z,3.61
2024-04-24T15:59:39.467Z,3.90
2024-04-24T16:02:08.731Z,4.05
2024-04-24T16:04:36.870Z,4.45
2024-04-24T16:07:05.994Z,4.04
2024-04-24T16:09:34.705Z,4.17
2024-04-24T16:12:02.951Z,3.95
2024-04-24T16:14:30.953Z,4.19
2024-04-24T16:16:59.017Z,4.00
2024-04-24T16:19:26.979Z,4.30
2024-04-24T16:21:55.113Z,4.13
2024-04-24T16:24:23.314Z,4.14
2024-04-24T16:26:51.283Z,4.03
2024-04-24T16:29:19.531Z,4.18
2024-04-24T16:31:47.426Z,4.17
2024-04-24T16:34:15.407Z,4.00
2024-04-24T16:36:43.756Z,4.06
2024-04-24T16:39:11.908Z,3.86
2024-04-24T16:41:40.114Z,4.22
2024-04-24T16:44:08.089Z,4.00
2024-04-24T16:46:36.199Z,3.69
2024-04-24T16:49:04.393Z,3.91
2024-04-24T16:51:38.120Z,3.39
2024-04-24T16:54:06.335Z,3.51
2024-04-24T16:56:34.558Z,3.59
2024-04-24T16:59:02.721Z,3.75
2024-04-24T17:01:33.493Z,3.64
2024-04-24T17:04:01.563Z,3.65
2024-04-24T17:06:29.597Z,3.23
2024-04-24T17:08:57.582Z,3.31
2024-04-24T17:11:25.688Z,3.20
2024-04-24T17:13:54.290Z,3.37
2024-04-24T17:16:22.219Z,3.55
2024-04-24T17:18:50.319Z,3.93
2024-04-24T17:21:18.363Z,3.54
2024-04-24T17:23:46.261Z,3.63
2024-04-24T17:26:21.131Z,3.81
2024-04-24T17:28:55.754Z,3.95
2024-04-24T17:31:23.739Z,3.66
2024-04-24T17:33:51.721Z,3.75
2024-04-24T17:36:19.702Z,3.94
2024-04-24T17:38:47.689Z,4.20
2024-04-24T17:41:15.516Z,4.39
2024-04-24T17:43:43.602Z,5.60
2024-04-24T17:46:11.995Z,5.35
2024-04-24T17:48:40.024Z,5.40
2024-04-24T17:51:08.022Z,5.35
2024-04-24T17:53:36.163Z,5.28
2024-04-24T17:56:04.382Z,5.16
2024-04-24T17:58:32.356Z,5.11
2024-04-24T18:01:00.342Z,5.85
2024-04-24T18:03:30.370Z,6.56
2024-04-24T18:05:58.436Z,7.72
2024-04-24T18:08:26.362Z,7.25
2024-04-24T18:10:54.365Z,6.31
2024-04-24T18:13:22.458Z,6.58
2024-04-24T18:15:51.126Z,5.72
2024-04-24T18:18:20.399Z,5.28
2024-04-24T18:20:48.493Z,5.22
2024-04-24T18:23:16.615Z,5.05
2024-04-24T18:25:44.694Z,5.33
2024-04-24T18:28:13.184Z,6.98
2024-04-24T18:30:41.323Z,7.22
2024-04-24T18:33:09.530Z,6.05
2024-04-24T18:35:37.610Z,5.40
2024-04-24T18:38:05.633Z,5.20
2024-04-24T18:40:35.153Z,5.46
2024-04-24T18:43:03.184Z,5.25
2024-04-24T18:45:31.176Z,5.46
2024-04-24T18:47:59.287Z,5.47
2024-04-24T18:50:27.510Z,5.77
2024-04-24T18:52:55.875Z,5.62
2024-04-24T18:55:25.834Z,5.34
2024-04-24T18:57:53.845Z,5.60
2024-04-24T19:00:22.057Z,5.10
2024-04-24T19:02:50.260Z,5.11
2024-04-24T19:05:20.343Z,5.21
2024-04-24T19:07:48.480Z,5.45
2024-04-24T19:10:16.970Z,5.14
2024-04-24T19:12:45.075Z,5.52
2024-04-24T19:15:13.101Z,5.29
2024-04-24T19:17:43.822Z,5.44
2024-04-24T19:20:12.003Z,5.87
2024-04-24T19:22:41.290Z,5.24
2024-04-24T19:25:09.899Z,4.19
2024-04-24T19:27:41.541Z,3.56
2024-04-24T19:30:10.983Z,3.56
2024-04-24T19:32:39.619Z,3.52
2024-04-24T19:35:08.352Z,3.35
2024-04-24T19:37:36.473Z,3.59
2024-04-24T19:40:05.897Z,3.30
2024-04-24T19:42:33.995Z,3.44
2024-04-24T19:45:02.360Z,3.12
2024-04-24T19:47:30.568Z,2.80
2024-04-24T19:49:59.249Z,2.90
2024-04-24T19:52:27.365Z,2.91
2024-04-24T19:54:55.397Z,2.73
2024-04-24T19:57:23.360Z,2.91
2024-04-24T19:59:51.347Z,2.47
2024-04-24T20:02:21.121Z,2.74
2024-04-24T20:04:50.226Z,2.65
2024-04-24T20:07:18.166Z,2.65
2024-04-24T20:09:46.630Z,3.17
2024-04-24T20:12:14.816Z,3.34
2024-04-24T20:14:42.880Z,3.29
2024-04-24T20:17:10.910Z,3.52
2024-04-24T20:19:39.876Z,3.41
2024-04-24T20:22:07.864Z,3.53
2024-04-24T20:24:35.795Z,3.26
2024-04-24T20:27:03.906Z,3.52
2024-04-24T20:29:34.510Z,3.22
2024-04-24T20:32:04.094Z,3.07
2024-04-24T20:34:33.058Z,3.52
2024-04-24T20:37:01.142Z,3.46
2024-04-24T20:39:29.144Z,3.57
2024-04-24T20:41:57.136Z,3.17
2024-04-24T20:44:25.093Z,3.51
2024-04-24T20:46:53.487Z,3.17
2024-04-24T20:49:21.720Z,3.04
2024-04-24T20:51:50.392Z,2.39
2024-04-24T20:54:18.808Z,2.16
2024-04-24T20:56:46.747Z,2.51
2024-04-24T20:59:14.634Z,2.90
2024-04-24T21:01:42.572Z,2.68
2024-04-24T21:04:10.528Z,2.80
2024-04-24T21:06:38.564Z,3.38
2024-04-24T21:09:07.356Z,3.12
2024-04-24T21:11:35.546Z,3.25
2024-04-24T21:14:03.667Z,2.98
2024-04-24T21:16:32.442Z,3.15
2024-04-24T21:19:00.581Z,2.89
2024-04-24T21:21:28.978Z,3.39
2024-04-24T21:23:57.270Z,2.92
2024-04-24T21:26:25.382Z,2.99
2024-04-24T21:28:53.342Z,2.91
2024-04-24T21:31:21.232Z,2.75
2024-04-24T21:33:49.112Z,2.75
2024-04-24T21:36:17.040Z,2.67
2024-04-24T21:38:45.092Z,2.63
2024-04-24T21:41:22.760Z,2.45
2024-04-24T21:43:51.037Z,2.68
2024-04-24T21:46:19.651Z,2.71
2024-04-24T21:48:47.801Z,2.55
2024-04-24T21:51:15.921Z,2.84
2024-04-24T21:53:43.986Z,2.70
2024-04-24T21:56:11.957Z,2.76
2024-04-24T21:58:40.815Z,2.79
2024-04-24T22:01:09.039Z,2.70
2024-04-24T22:03:37.234Z,3.07
2024-04-24T22:06:06.151Z,2.78
2024-04-24T22:08:34.414Z,3.06
2024-04-24T22:11:02.501Z,3.35
2024-04-24T22:13:30.595Z,3.57
2024-04-24T22:15:58.625Z,3.37
2024-04-24T22:18:27.255Z,3.73
2024-04-24T22:20:55.449Z,3.53
2024-04-24T22:23:23.474Z,3.38
2024-04-24T22:25:51.395Z,3.09
2024-04-24T22:28:19.272Z,2.88
2024-04-24T22:30:47.793Z,2.75
2024-04-24T22:33:15.792Z,2.74
2024-04-24T22:35:43.979Z,2.44
2024-04-24T22:38:12.275Z,2.32
2024-04-24T22:40:40.592Z,2.35
2024-04-24T22:43:08.534Z,2.36
2024-04-24T22:45:36.446Z,2.38
2024-04-24T22:48:04.781Z,2.14
2024-04-24T22:50:33.696Z,2.23
2024-04-24T22:53:01.803Z,2.24
2024-04-24T22:55:29.834Z,2.10
2024-04-24T22:57:57.713Z,2.13
2024-04-24T23:00:25.658Z,1.93
2024-04-24T23:02:53.613Z,2.04
2024-04-24T23:05:21.606Z,2.13
2024-04-24T23:07:49.491Z,1.90
2024-04-24T23:10:17.466Z,1.86
2024-04-24T23:12:45.325Z,1.88
2024-04-24T23:15:13.347Z,1.81
2024-04-24T23:17:41.374Z,2.07
2024-04-24T23:20:09.679Z,2.04
2024-04-24T23:22:37.615Z,1.75
2024-04-24T23:25:05.975Z,1.70
2024-04-24T23:27:33.961Z,1.36
2024-04-24T23:30:02.521Z,1.21
2024-04-24T23:32:30.820Z,1.24
2024-04-24T23:34:58.757Z,1.42
2024-04-24T23:37:26.719Z,1.40
2024-04-24T23:39:54.730Z,1.17
2024-04-24T23:42:22.603Z,1.17
2024-04-24T23:44:50.475Z,1.01
2024-04-24T23:47:18.543Z,1.24
2024-04-24T23:49:46.686Z,1.38
2024-04-24T23:52:14.654Z,1.09
2024-04-24T23:54:42.640Z,1.44
2024-04-24T23:57:10.777Z,1.41
2024-04-24T23:59:38.717Z,1.30
